Time;durP1;ratioP1;P1;durP2;ratioP2;P2;SDS_P1;SDS_P2;PMS_P1;PMS_P2;Temp;Humidity;BMP_temperature;BMP_pressure;BME280_temperature;BME280_humidity;BME280_pressure;Samples;Min_cycle;Max_cycle;Signal;HPM_P1;HPM_P2
2022/03/15 00:01:36;;;;;;;35.37;32.07;;;;;;;;;;4981061;28;20438;-96
2022/03/15 00:04:04;;;;;;;35.33;31.63;;;;;;;;;;4982330;28;20413;-96
2022/03/15 00:06:34;;;;;;;36.37;33.07;;;;;;;;;;4982111;28;20425;-96
2022/03/15 00:09:02;;;;;;;34.73;31.70;;;;;;;;;;4980109;28;21019;-96
2022/03/15 00:11:34;;;;;;;34.20;31.20;;;;;;;;;;4980017;28;20440;-96
2022/03/15 00:14:04;;;;;;;38.28;32.03;;;;;;;;;;4980575;28;20880;-96
2022/03/15 00:16:31;;;;;;;34.47;31.40;;;;;;;;;;4980305;28;20199;-96
2022/03/15 00:18:59;;;;;;;34.10;30.77;;;;;;;;;;4979462;28;20464;-96
2022/03/15 00:21:28;;;;;;;34.33;31.37;;;;;;;;;;4980162;28;20481;-96
2022/03/15 00:23:55;;;;;;;32.80;29.87;;;;;;;;;;4962615;28;20908;-95
2022/03/15 00:26:23;;;;;;;32.47;29.70;;;;;;;;;;4979409;28;20888;-96
2022/03/15 00:28:50;;;;;;;32.47;29.67;;;;;;;;;;4979852;28;20414;-95
2022/03/15 00:31:19;;;;;;;32.57;29.60;;;;;;;;;;4979867;28;20420;-96
2022/03/15 00:33:46;;;;;;;33.07;30.17;;;;;;;;;;4979647;28;20486;-96
2022/03/15 00:36:14;;;;;;;34.05;31.05;;;;;;;;;;4979013;28;20939;-96
2022/03/15 00:38:41;;;;;;;31.83;29.03;;;;;;;;;;4978960;28;20630;-95
2022/03/15 00:41:09;;;;;;;34.93;31.53;;;;;;;;;;4979013;28;20454;-96
2022/03/15 00:43:36;;;;;;;33.53;30.60;;;;;;;;;;4978959;28;20425;-95
2022/03/15 00:46:04;;;;;;;30.73;28.23;;;;;;;;;;4978964;28;20453;-96
2022/03/15 00:48:32;;;;;;;31.77;29.10;;;;;;;;;;4978710;28;20421;-96
2022/03/15 00:51:00;;;;;;;32.20;29.40;;;;;;;;;;4979267;28;20429;-96
2022/03/15 00:53:27;;;;;;;33.43;30.40;;;;;;;;;;4978747;28;20456;-96
2022/03/15 00:55:54;;;;;;;32.60;29.87;;;;;;;;;;4961564;28;20447;-96
2022/03/15 00:58:22;;;;;;;33.57;30.67;;;;;;;;;;4978512;28;20436;-96
2022/03/15 01:00:50;;;;;;;33.50;30.63;;;;;;;;;;4978599;28;20449;-96
2022/03/15 01:03:17;;;;;;;33.80;31.07;;;;;;;;;;4960386;28;20429;-96
2022/03/15 01:05:46;;;;;;;32.07;29.07;;;;;;;;;;4978596;28;20450;-96
2022/03/15 01:08:14;;;;;;;31.10;28.60;;;;;;;;;;4979182;28;20437;-96
2022/03/15 01:10:41;;;;;;;31.77;29.25;;;;;;;;;;4977966;28;20472;-95
2022/03/15 01:13:09;;;;;;;31.83;29.37;;;;;;;;;;4978945;28;20307;-96
2022/03/15 01:15:41;;;;;;;32.90;30.20;;;;;;;;;;4978208;28;20902;-95
2022/03/15 01:18:09;;;;;;;31.70;29.00;;;;;;;;;;4978380;28;20414;-95
2022/03/15 01:20:36;;;;;;;31.17;28.70;;;;;;;;;;4979082;28;20504;-96
2022/03/15 01:23:06;;;;;;;30.73;28.30;;;;;;;;;;4979068;28;20429;-96
2022/03/15 01:25:33;;;;;;;33.20;30.50;;;;;;;;;;4978359;28;20410;-96
2022/03/15 01:28:01;;;;;;;32.93;30.30;;;;;;;;;;4978395;28;20435;-96
2022/03/15 01:30:30;;;;;;;31.80;29.37;;;;;;;;;;4979004;28;20442;-96
2022/03/15 01:32:57;;;;;;;30.15;27.65;;;;;;;;;;4978832;28;20864;-96
2022/03/15 01:35:25;;;;;;;30.00;27.70;;;;;;;;;;4978569;28;20598;-95
2022/03/15 01:37:52;;;;;;;32.00;29.40;;;;;;;;;;4977985;28;20414;-96
2022/03/15 01:40:21;;;;;;;30.10;27.70;;;;;;;;;;4978324;28;20478;-96
2022/03/15 01:42:48;;;;;;;32.27;29.43;;;;;;;;;;4979415;28;20448;-96
2022/03/15 01:45:16;;;;;;;32.00;29.40;;;;;;;;;;4977435;28;20439;-95
2022/03/15 01:47:44;;;;;;;31.67;28.92;;;;;;;;;;4977615;28;20439;-96
2022/03/15 01:50:11;;;;;;;32.33;29.73;;;;;;;;;;4977215;28;20294;-95
2022/03/15 01:52:38;;;;;;;31.40;28.60;;;;;;;;;;4977289;28;20859;-96
2022/03/15 01:55:06;;;;;;;31.50;28.67;;;;;;;;;;4977392;28;20250;-96
2022/03/15 01:57:35;;;;;;;30.53;28.23;;;;;;;;;;4976733;28;20458;-95
2022/03/15 02:00:03;;;;;;;30.70;28.30;;;;;;;;;;4977235;28;20491;-96
2022/03/15 02:02:30;;;;;;;30.17;27.77;;;;;;;;;;4976987;28;20447;-95
2022/03/15 02:04:58;;;;;;;32.20;29.43;;;;;;;;;;4976672;28;20413;-96
2022/03/15 02:07:25;;;;;;;31.53;28.93;;;;;;;;;;4977076;28;20754;-96
2022/03/15 02:09:53;;;;;;;32.03;29.33;;;;;;;;;;4976911;28;20957;-96
2022/03/15 02:12:20;;;;;;;32.00;29.40;;;;;;;;;;4976591;28;20905;-96
2022/03/15 02:14:49;;;;;;;31.10;28.40;;;;;;;;;;4975866;28;20487;-96
2022/03/15 02:17:16;;;;;;;29.33;27.13;;;;;;;;;;4976585;28;20413;-95
2022/03/15 02:19:44;;;;;;;30.90;28.40;;;;;;;;;;4976217;28;20465;-96
2022/03/15 02:22:14;;;;;;;31.07;28.47;;;;;;;;;;4976972;28;20414;-96
2022/03/15 02:24:42;;;;;;;30.73;28.20;;;;;;;;;;4976220;28;20524;-96
2022/03/15 02:27:10;;;;;;;29.90;27.70;;;;;;;;;;4976150;28;20413;-96
2022/03/15 02:29:37;;;;;;;31.90;29.40;;;;;;;;;;4976042;28;20414;-95
2022/03/15 02:32:05;;;;;;;31.67;29.07;;;;;;;;;;4976089;28;20469;-95
2022/03/15 02:34:32;;;;;;;30.77;28.00;;;;;;;;;;4976247;28;20522;-95
2022/03/15 02:36:59;;;;;;;31.30;28.60;;;;;;;;;;4976396;28;20430;-96
2022/03/15 02:39:28;;;;;;;31.48;28.55;;;;;;;;;;4976157;28;20421;-95
2022/03/15 02:41:55;;;;;;;32.28;29.13;;;;;;;;;;4976299;28;20192;-96
2022/03/15 02:44:23;;;;;;;29.85;27.55;;;;;;;;;;4976353;28;20635;-96
2022/03/15 02:46:50;;;;;;;29.50;26.70;;;;;;;;;;4976429;28;20191;-95
2022/03/15 02:49:18;;;;;;;27.98;25.83;;;;;;;;;;4976415;28;20454;-96
2022/03/15 02:51:45;;;;;;;29.42;26.90;;;;;;;;;;4976014;28;20199;-95
2022/03/15 02:54:13;;;;;;;29.70;27.20;;;;;;;;;;4958892;28;20290;-96
2022/03/15 02:56:43;;;;;;;29.67;27.37;;;;;;;;;;4976263;28;20487;-96
2022/03/15 02:59:11;;;;;;;29.02;26.70;;;;;;;;;;4976647;28;20450;-96
2022/03/15 03:01:39;;;;;;;30.23;27.63;;;;;;;;;;4977447;28;20191;-96
2022/03/15 03:04:07;;;;;;;29.27;27.07;;;;;;;;;;4977666;28;20447;-95
2022/03/15 03:06:35;;;;;;;28.77;26.47;;;;;;;;;;4958997;28;20425;-96
2022/03/15 03:09:02;;;;;;;28.33;25.67;;;;;;;;;;4976071;28;20746;-96
2022/03/15 03:11:29;;;;;;;30.23;27.67;;;;;;;;;;4975449;28;20834;-94
2022/03/15 03:13:58;;;;;;;29.30;26.97;;;;;;;;;;4975278;28;20233;-96
2022/03/15 03:16:26;;;;;;;31.17;28.25;;;;;;;;;;4975124;28;20435;-96
2022/03/15 03:18:58;;;;;;;30.30;27.60;;;;;;;;;;4975147;28;20279;-96
2022/03/15 03:21:26;;;;;;;30.27;27.53;;;;;;;;;;4976380;28;20445;-96
2022/03/15 03:23:54;;;;;;;30.97;28.23;;;;;;;;;;4976034;28;20446;-96
2022/03/15 03:26:21;;;;;;;31.00;28.07;;;;;;;;;;4975691;28;20837;-95
2022/03/15 03:28:49;;;;;;;33.13;29.10;;;;;;;;;;4975814;28;20450;-96
2022/03/15 03:31:18;;;;;;;32.28;29.30;;;;;;;;;;4975952;28;20425;-96
2022/03/15 03:33:45;;;;;;;30.30;27.70;;;;;;;;;;4975838;28;20228;-96
2022/03/15 03:36:13;;;;;;;30.00;27.40;;;;;;;;;;4975362;28;20960;-96
2022/03/15 03:38:41;;;;;;;30.07;26.97;;;;;;;;;;4975789;28;20633;-95
2022/03/15 03:41:08;;;;;;;30.87;27.73;;;;;;;;;;4975698;28;20414;-96
2022/03/15 03:43:36;;;;;;;30.53;27.73;;;;;;;;;;4976112;28;20493;-95
2022/03/15 03:46:03;;;;;;;30.42;27.30;;;;;;;;;;4975005;28;20446;-96
2022/03/15 03:48:32;;;;;;;29.17;26.57;;;;;;;;;;4976101;28;20187;-95
2022/03/15 03:51:01;;;;;;;29.30;26.80;;;;;;;;;;4976567;28;20440;-96
2022/03/15 03:53:28;;;;;;;30.57;27.80;;;;;;;;;;4976119;28;20195;-96
2022/03/15 03:55:55;;;;;;;29.83;27.35;;;;;;;;;;4975792;28;20465;-95
2022/03/15 03:58:23;;;;;;;30.17;27.40;;;;;;;;;;4975514;28;20192;-95
2022/03/15 04:00:50;;;;;;;29.50;26.80;;;;;;;;;;4975163;28;20191;-95
2022/03/15 04:03:17;;;;;;;29.83;27.33;;;;;;;;;;4975119;28;20653;-96
2022/03/15 04:05:46;;;;;;;30.87;27.40;;;;;;;;;;4975093;28;20279;-95
2022/03/15 04:08:16;;;;;;;31.63;28.47;;;;;;;;;;4975447;28;20421;-96
2022/03/15 04:10:45;;;;;;;33.70;30.50;;;;;;;;;;4975443;28;20443;-96
2022/03/15 04:13:18;;;;;;;29.30;27.00;;;;;;;;;;4975106;28;20220;-96
2022/03/15 04:15:45;;;;;;;30.03;27.50;;;;;;;;;;4975323;28;20485;-95
2022/03/15 04:18:12;;;;;;;30.80;27.90;;;;;;;;;;4974729;28;20950;-96
2022/03/15 04:20:40;;;;;;;30.70;28.00;;;;;;;;;;4975285;28;20484;-95
2022/03/15 04:23:10;;;;;;;30.05;27.35;;;;;;;;;;4975108;28;20490;-96
2022/03/15 04:25:37;;;;;;;30.25;27.60;;;;;;;;;;4975130;28;20192;-96
2022/03/15 04:28:05;;;;;;;32.38;29.02;;;;;;;;;;4974847;28;20196;-95
2022/03/15 04:30:33;;;;;;;30.90;28.10;;;;;;;;;;4975098;28;20191;-96
2022/03/15 04:33:01;;;;;;;31.10;28.30;;;;;;;;;;4975313;28;20742;-96
2022/03/15 04:35:29;;;;;;;32.10;28.93;;;;;;;;;;4975249;28;20497;-96
2022/03/15 04:37:57;;;;;;;30.90;27.75;;;;;;;;;;4976954;28;20430;-96
2022/03/15 04:40:26;;;;;;;29.63;27.30;;;;;;;;;;4978734;28;20202;-96
2022/03/15 04:42:54;;;;;;;30.13;27.50;;;;;;;;;;4978569;28;20476;-96
2022/03/15 04:45:22;;;;;;;30.83;28.05;;;;;;;;;;4978310;28;20410;-96
2022/03/15 04:47:49;;;;;;;29.33;27.10;;;;;;;;;;4978935;28;20246;-95
2022/03/15 04:50:17;;;;;;;29.33;26.55;;;;;;;;;;4979126;28;20422;-96
2022/03/15 04:52:44;;;;;;;29.92;27.13;;;;;;;;;;4978492;28;20196;-95
2022/03/15 04:55:12;;;;;;;31.40;28.40;;;;;;;;;;4961487;28;20317;-96
2022/03/15 04:57:40;;;;;;;30.17;27.37;;;;;;;;;;4978187;28;20529;-96
2022/03/15 05:00:09;;;;;;;30.07;27.43;;;;;;;;;;4978559;28;20976;-95
2022/03/15 05:02:38;;;;;;;30.52;27.73;;;;;;;;;;4978449;28;20449;-95
2022/03/15 05:05:06;;;;;;;28.48;25.98;;;;;;;;;;4979273;28;20230;-96
2022/03/15 05:07:34;;;;;;;29.40;26.97;;;;;;;;;;4978838;28;20199;-93
2022/03/15 05:13:02;;;;;;;29.33;26.70;;;;;;;;;;4899774;29;21006;-96
2022/03/15 05:15:29;;;;;;;29.30;26.70;;;;;;;;;;4900156;29;20498;-96
2022/03/15 05:17:57;;;;;;;32.90;29.90;;;;;;;;;;4899566;29;20516;-96
2022/03/15 05:20:24;;;;;;;30.42;27.65;;;;;;;;;;4899401;29;20249;-96
2022/03/15 05:22:52;;;;;;;28.80;26.40;;;;;;;;;;4899785;29;20190;-95
2022/03/15 05:25:19;;;;;;;31.88;29.08;;;;;;;;;;4899865;29;20517;-96
2022/03/15 05:27:47;;;;;;;32.03;28.50;;;;;;;;;;4899280;29;20753;-95
2022/03/15 05:30:17;;;;;;;30.67;28.00;;;;;;;;;;4899208;29;20210;-96
2022/03/15 05:32:45;;;;;;;33.40;30.60;;;;;;;;;;4899324;29;20456;-95
2022/03/15 05:35:12;;;;;;;30.85;28.05;;;;;;;;;;4899171;29;20883;-96
2022/03/15 05:37:39;;;;;;;30.70;27.90;;;;;;;;;;4899418;29;20254;-96
2022/03/15 05:40:08;;;;;;;30.60;27.70;;;;;;;;;;4898803;29;20417;-87
2022/03/15 05:42:35;;;;;;;30.60;28.05;;;;;;;;;;4899313;29;20225;-87
2022/03/15 05:45:02;;;;;;;29.37;26.97;;;;;;;;;;4974015;28;20235;-87
2022/03/15 05:47:31;;;;;;;30.33;27.37;;;;;;;;;;4977678;28;20779;-87
2022/03/15 05:49:59;;;;;;;28.70;26.30;;;;;;;;;;4977670;28;20502;-87
2022/03/15 05:52:26;;;;;;;30.08;27.83;;;;;;;;;;4977258;28;20422;-87
2022/03/15 05:54:53;;;;;;;30.33;27.73;;;;;;;;;;4977074;28;20219;-87
2022/03/15 05:57:21;;;;;;;29.42;26.92;;;;;;;;;;4977010;28;20422;-88
2022/03/15 05:59:48;;;;;;;29.30;26.80;;;;;;;;;;4977598;28;20200;-87
2022/03/15 06:02:16;;;;;;;32.57;29.10;;;;;;;;;;4977931;28;20425;-88
2022/03/15 06:04:45;;;;;;;29.67;27.00;;;;;;;;;;4977324;28;20460;-87
2022/03/15 06:07:12;;;;;;;29.17;26.50;;;;;;;;;;4977277;28;20436;-87
2022/03/15 06:09:39;;;;;;;28.47;25.90;;;;;;;;;;4977784;28;20454;-88
2022/03/15 06:12:08;;;;;;;29.70;27.00;;;;;;;;;;4977770;28;20428;-88
2022/03/15 06:14:35;;;;;;;30.30;27.55;;;;;;;;;;4977519;28;20807;-87
2022/03/15 06:17:04;;;;;;;33.00;29.87;;;;;;;;;;4977989;28;20203;-88
2022/03/15 06:19:32;;;;;;;30.53;27.77;;;;;;;;;;4976163;28;20461;-87
2022/03/15 06:22:00;;;;;;;29.17;26.50;;;;;;;;;;4976431;28;20430;-88
2022/03/15 06:24:28;;;;;;;27.37;25.10;;;;;;;;;;4975943;28;20418;-87
2022/03/15 06:26:57;;;;;;;29.57;26.67;;;;;;;;;;4975781;28;20421;-87
2022/03/15 06:29:24;;;;;;;29.10;26.48;;;;;;;;;;4976461;28;20987;-87
2022/03/15 06:31:52;;;;;;;29.27;26.90;;;;;;;;;;4976305;28;20212;-87
2022/03/15 06:34:19;;;;;;;29.70;27.20;;;;;;;;;;4977170;28;20979;-86
2022/03/15 06:36:46;;;;;;;30.90;27.83;;;;;;;;;;4976153;28;20465;-87
2022/03/15 06:39:15;;;;;;;31.60;28.30;;;;;;;;;;4975691;28;20439;-88
2022/03/15 06:41:43;;;;;;;29.17;26.50;;;;;;;;;;4975905;28;20447;-87
2022/03/15 06:44:11;;;;;;;28.37;25.97;;;;;;;;;;4976683;28;20421;-87
2022/03/15 06:46:38;;;;;;;28.83;26.43;;;;;;;;;;4976330;28;20420;-87
2022/03/15 06:49:06;;;;;;;31.23;27.77;;;;;;;;;;4975915;28;20417;-87
2022/03/15 06:51:34;;;;;;;30.77;28.07;;;;;;;;;;4976011;28;20472;-89
2022/03/15 06:54:01;;;;;;;30.93;27.67;;;;;;;;;;4975344;28;20794;-87
2022/03/15 06:56:30;;;;;;;31.00;28.13;;;;;;;;;;4976037;28;20656;-86
2022/03/15 06:58:58;;;;;;;29.43;26.83;;;;;;;;;;4975609;28;20816;-86
2022/03/15 07:01:25;;;;;;;33.90;30.97;;;;;;;;;;4974987;28;20833;-87
2022/03/15 07:03:52;;;;;;;33.27;30.33;;;;;;;;;;4975474;28;20417;-87
2022/03/15 07:06:20;;;;;;;34.00;31.10;;;;;;;;;;4975176;28;20960;-85
2022/03/15 07:08:47;;;;;;;32.33;29.47;;;;;;;;;;4975481;28;20417;-86
2022/03/15 07:11:14;;;;;;;29.70;27.20;;;;;;;;;;4975005;28;20517;-85
2022/03/15 07:13:43;;;;;;;32.30;29.27;;;;;;;;;;4974938;28;20418;-87
2022/03/15 07:16:11;;;;;;;30.83;28.33;;;;;;;;;;4974943;28;20486;-86
2022/03/15 07:18:38;;;;;;;30.17;27.57;;;;;;;;;;4974933;28;20824;-89
2022/03/15 07:21:05;;;;;;;31.93;29.07;;;;;;;;;;4973649;28;20480;-85
2022/03/15 07:23:33;;;;;;;30.60;27.80;;;;;;;;;;4974646;28;20965;-85
2022/03/15 07:26:00;;;;;;;30.30;27.73;;;;;;;;;;4974405;28;20438;-86
2022/03/15 07:28:27;;;;;;;32.83;29.93;;;;;;;;;;4974900;28;20447;-86
2022/03/15 07:30:56;;;;;;;31.30;28.60;;;;;;;;;;4974885;28;20417;-86
2022/03/15 07:33:23;;;;;;;33.10;30.10;;;;;;;;;;4974823;28;20460;-86
2022/03/15 07:35:51;;;;;;;35.20;32.10;;;;;;;;;;4957547;28;20963;-89
2022/03/15 07:38:19;;;;;;;34.87;31.60;;;;;;;;;;4974643;28;20417;-85
2022/03/15 07:40:48;;;;;;;34.53;31.67;;;;;;;;;;4974432;28;20454;-88
2022/03/15 07:43:15;;;;;;;33.37;30.30;;;;;;;;;;4975467;28;20433;-87
2022/03/15 07:45:43;;;;;;;31.20;28.40;;;;;;;;;;4958097;28;20522;-89
2022/03/15 07:48:12;;;;;;;33.20;30.40;;;;;;;;;;4975542;28;20418;-88
2022/03/15 07:50:39;;;;;;;31.93;29.00;;;;;;;;;;4974753;28;20880;-89
2022/03/15 07:53:06;;;;;;;31.53;28.87;;;;;;;;;;4975337;28;20413;-89
2022/03/15 07:55:35;;;;;;;30.50;27.80;;;;;;;;;;4975158;28;20528;-84
2022/03/15 07:58:02;;;;;;;31.77;28.63;;;;;;;;;;4974968;28;20445;-87
2022/03/15 08:00:30;;;;;;;29.23;26.73;;;;;;;;;;4974993;28;20466;-89
2022/03/15 08:02:58;;;;;;;29.60;26.80;;;;;;;;;;4975067;28;20413;-89
2022/03/15 08:05:28;;;;;;;28.87;26.60;;;;;;;;;;4975108;28;20816;-86
2022/03/15 08:07:56;;;;;;;29.60;27.23;;;;;;;;;;4974559;28;20505;-85
2022/03/15 08:10:24;;;;;;;30.00;27.40;;;;;;;;;;4974323;28;20435;-85
2022/03/15 08:12:51;;;;;;;30.63;28.13;;;;;;;;;;4975957;28;20530;-87
2022/03/15 08:15:19;;;;;;;30.47;27.87;;;;;;;;;;4978044;28;20742;-87
2022/03/15 08:17:46;;;;;;;30.40;27.80;;;;;;;;;;4978109;28;20425;-86
2022/03/15 08:20:18;;;;;;;29.73;27.03;;;;;;;;;;4977608;28;20574;-85
2022/03/15 08:22:46;;;;;;;30.30;27.50;;;;;;;;;;4977808;28;20425;-85
2022/03/15 08:25:14;;;;;;;28.87;26.57;;;;;;;;;;4977725;28;20414;-86
2022/03/15 08:27:41;;;;;;;30.87;28.10;;;;;;;;;;4977733;28;20413;-86
2022/03/15 08:30:09;;;;;;;28.83;26.73;;;;;;;;;;4977796;28;20418;-86
2022/03/15 08:32:37;;;;;;;29.03;26.50;;;;;;;;;;4977955;28;20454;-87
2022/03/15 08:35:04;;;;;;;27.87;25.50;;;;;;;;;;4978359;28;20414;-87
2022/03/15 08:37:31;;;;;;;27.70;25.50;;;;;;;;;;4978469;28;20490;-87
2022/03/15 08:40:01;;;;;;;26.57;24.67;;;;;;;;;;4977866;28;20788;-86
2022/03/15 08:42:28;;;;;;;29.20;26.80;;;;;;;;;;4978495;28;20465;-87
2022/03/15 08:44:56;;;;;;;26.60;24.60;;;;;;;;;;4978381;28;20438;-87
2022/03/15 08:47:23;;;;;;;27.33;25.20;;;;;;;;;;4977962;28;20446;-91
2022/03/15 08:49:50;;;;;;;27.50;25.10;;;;;;;;;;4978491;28;20438;-89
2022/03/15 08:52:18;;;;;;;27.07;24.83;;;;;;;;;;4978555;28;20446;-91
2022/03/15 08:54:45;;;;;;;27.27;25.07;;;;;;;;;;4977780;28;20462;-90
2022/03/15 08:57:14;;;;;;;26.83;24.83;;;;;;;;;;4977975;28;20462;-89
2022/03/15 08:59:42;;;;;;;26.67;24.57;;;;;;;;;;4977727;28;20457;-89
2022/03/15 09:02:12;;;;;;;25.80;24.00;;;;;;;;;;4977697;28;20922;-90
2022/03/15 09:04:39;;;;;;;28.30;26.10;;;;;;;;;;4977883;28;20471;-90
2022/03/15 09:07:06;;;;;;;27.53;25.40;;;;;;;;;;4977515;28;20414;-86
2022/03/15 09:09:34;;;;;;;26.07;23.77;;;;;;;;;;4959975;28;20459;-87
2022/03/15 09:12:02;;;;;;;26.70;24.53;;;;;;;;;;4977475;28;20439;-85
2022/03/15 09:14:31;;;;;;;28.10;25.37;;;;;;;;;;4977746;28;20497;-90
2022/03/15 09:16:59;;;;;;;26.00;23.97;;;;;;;;;;4977237;28;20525;-90
2022/03/15 09:19:27;;;;;;;29.43;27.03;;;;;;;;;;4977258;28;20480;-88
2022/03/15 09:21:54;;;;;;;26.47;24.13;;;;;;;;;;4977723;28;20478;-89
2022/03/15 09:24:21;;;;;;;27.37;25.00;;;;;;;;;;4976705;28;20446;-88
2022/03/15 09:26:48;;;;;;;26.80;24.70;;;;;;;;;;4977356;28;20764;-86
2022/03/15 09:29:16;;;;;;;26.50;24.33;;;;;;;;;;4977130;28;20518;-87
2022/03/15 09:31:44;;;;;;;28.37;25.93;;;;;;;;;;4977034;28;20439;-89
2022/03/15 09:34:12;;;;;;;28.00;25.70;;;;;;;;;;4976441;28;20441;-86
2022/03/15 09:36:39;;;;;;;28.00;25.63;;;;;;;;;;4976390;28;20460;-86
2022/03/15 09:39:08;;;;;;;28.57;26.10;;;;;;;;;;4976697;28;20443;-86
2022/03/15 09:41:39;;;;;;;28.47;26.20;;;;;;;;;;4976459;28;20417;-85
2022/03/15 09:44:07;;;;;;;26.60;24.53;;;;;;;;;;4976693;28;20406;-85
2022/03/15 09:46:37;;;;;;;27.80;25.50;;;;;;;;;;4976447;28;20466;-86
2022/03/15 09:49:07;;;;;;;26.50;24.57;;;;;;;;;;4976398;28;20418;-85
2022/03/15 09:51:35;;;;;;;25.80;23.80;;;;;;;;;;4976207;28;20536;-84
2022/03/15 09:54:03;;;;;;;26.40;24.40;;;;;;;;;;4976346;28;21000;-85
2022/03/15 09:56:38;;;;;;;25.13;23.33;;;;;;;;;;4976082;28;20554;-85
2022/03/15 09:59:06;;;;;;;24.80;23.20;;;;;;;;;;4975765;28;20495;-85
2022/03/15 10:01:33;;;;;;;25.87;23.77;;;;;;;;;;4976208;28;20439;-85
2022/03/15 10:04:00;;;;;;;27.07;24.83;;;;;;;;;;4976149;28;20430;-85
2022/03/15 10:06:29;;;;;;;26.13;24.10;;;;;;;;;;4975869;28;20462;-85
2022/03/15 10:08:58;;;;;;;25.03;23.17;;;;;;;;;;4975899;28;20884;-86
2022/03/15 10:11:26;;;;;;;26.27;24.20;;;;;;;;;;4975773;28;20447;-86
2022/03/15 10:13:53;;;;;;;24.77;23.07;;;;;;;;;;4976512;28;20450;-85
2022/03/15 10:16:21;;;;;;;25.43;23.53;;;;;;;;;;4976534;28;20469;-86
2022/03/15 10:18:55;;;;;;;25.00;23.20;;;;;;;;;;4975661;28;21007;-85
2022/03/15 10:21:25;;;;;;;24.30;22.70;;;;;;;;;;4975904;28;20421;-86
2022/03/15 10:23:55;;;;;;;24.20;22.40;;;;;;;;;;4975612;28;20449;-85
2022/03/15 10:26:23;;;;;;;25.67;23.47;;;;;;;;;;4975430;28;20461;-85
2022/03/15 10:28:53;;;;;;;23.97;22.40;;;;;;;;;;4975485;28;20923;-86
2022/03/15 10:31:22;;;;;;;24.57;22.90;;;;;;;;;;4975760;28;20406;-85
2022/03/15 10:33:51;;;;;;;23.43;21.93;;;;;;;;;;4975702;28;20550;-86
2022/03/15 10:36:19;;;;;;;24.97;23.27;;;;;;;;;;4974964;28;20479;-91
2022/03/15 10:38:46;;;;;;;25.33;23.73;;;;;;;;;;4975463;28;20442;-85
2022/03/15 10:41:16;;;;;;;24.80;23.13;;;;;;;;;;4975478;28;20475;-82
2022/03/15 10:43:44;;;;;;;24.70;22.80;;;;;;;;;;4974611;28;20443;-85
2022/03/15 10:46:13;;;;;;;23.80;22.20;;;;;;;;;;4974777;28;20723;-85
2022/03/15 10:48:41;;;;;;;24.87;23.10;;;;;;;;;;4975100;28;20921;-86
2022/03/15 10:51:10;;;;;;;23.40;22.00;;;;;;;;;;4975496;28;20449;-85
2022/03/15 10:53:39;;;;;;;23.77;22.27;;;;;;;;;;4975213;28;20566;-86
2022/03/15 10:56:10;;;;;;;24.07;22.33;;;;;;;;;;4975299;28;20451;-84
2022/03/15 10:58:44;;;;;;;24.30;22.40;;;;;;;;;;4975153;28;20413;-84
2022/03/15 11:01:12;;;;;;;24.13;22.63;;;;;;;;;;4974082;28;20413;-84
2022/03/15 11:03:40;;;;;;;23.80;22.30;;;;;;;;;;4974707;28;20515;-83
2022/03/15 11:06:09;;;;;;;23.50;22.10;;;;;;;;;;4973501;28;20455;-85
2022/03/15 11:08:39;;;;;;;23.67;22.17;;;;;;;;;;4974721;28;20439;-84
2022/03/15 11:11:07;;;;;;;26.13;24.20;;;;;;;;;;4974765;28;20465;-84
2022/03/15 11:13:34;;;;;;;25.07;23.33;;;;;;;;;;4975123;28;20453;-84
2022/03/15 11:16:06;;;;;;;25.40;23.70;;;;;;;;;;4975142;28;20440;-84
2022/03/15 11:18:34;;;;;;;24.47;22.77;;;;;;;;;;4974818;28;20502;-85
2022/03/15 11:21:03;;;;;;;24.53;22.73;;;;;;;;;;4975483;28;20421;-84
2022/03/15 11:23:33;;;;;;;24.83;23.33;;;;;;;;;;4975169;28;20443;-85
2022/03/15 11:26:04;;;;;;;24.30;22.80;;;;;;;;;;4975810;28;20450;-85
2022/03/15 11:28:33;;;;;;;24.43;22.83;;;;;;;;;;4974927;28;20451;-85
2022/03/15 11:31:00;;;;;;;25.30;23.50;;;;;;;;;;4974444;28;20417;-83
2022/03/15 11:33:31;;;;;;;24.30;22.70;;;;;;;;;;4973789;28;20438;-83
2022/03/15 11:36:01;;;;;;;25.10;23.60;;;;;;;;;;4973997;28;20439;-83
2022/03/15 11:38:29;;;;;;;23.63;22.13;;;;;;;;;;4974195;28;20460;-84
2022/03/15 11:40:57;;;;;;;25.10;23.70;;;;;;;;;;4974777;28;20410;-84
2022/03/15 11:43:33;;;;;;;24.90;23.40;;;;;;;;;;4974118;28;20538;-84
2022/03/15 11:46:03;;;;;;;23.93;22.40;;;;;;;;;;4974485;28;21061;-84
2022/03/15 11:48:42;;;;;;;25.00;23.40;;;;;;;;;;4978338;28;20461;-84
2022/03/15 11:51:13;;;;;;;23.17;21.77;;;;;;;;;;4978299;28;20894;-84
2022/03/15 11:53:43;;;;;;;23.63;22.23;;;;;;;;;;4977983;28;20482;-84
2022/03/15 11:56:16;;;;;;;24.37;22.67;;;;;;;;;;4976663;28;20501;-84
2022/03/15 11:58:52;;;;;;;23.77;22.37;;;;;;;;;;4977959;28;20490;-84
2022/03/15 12:01:21;;;;;;;23.10;21.70;;;;;;;;;;4978168;28;20469;-84
2022/03/15 12:03:51;;;;;;;23.30;21.90;;;;;;;;;;4978118;28;20405;-86
2022/03/15 12:06:20;;;;;;;24.03;22.60;;;;;;;;;;4978019;28;20439;-84
2022/03/15 12:08:53;;;;;;;24.27;22.70;;;;;;;;;;4978058;28;20467;-84
2022/03/15 12:11:32;;;;;;;23.63;22.30;;;;;;;;;;4977872;28;20442;-83
2022/03/15 12:14:09;;;;;;;24.73;23.13;;;;;;;;;;4977617;28;20476;-84
2022/03/15 12:16:38;;;;;;;23.43;22.07;;;;;;;;;;4977961;28;20435;-85
2022/03/15 12:19:34;;;;;;;24.77;23.27;;;;;;;;;;4977300;28;20461;-83
2022/03/15 12:22:07;;;;;;;25.57;23.97;;;;;;;;;;4977027;28;20793;-84
2022/03/15 12:24:36;;;;;;;24.80;23.30;;;;;;;;;;4977617;28;20435;-84
2022/03/15 12:27:05;;;;;;;24.13;22.43;;;;;;;;;;4960120;28;20969;-84
2022/03/15 12:29:32;;;;;;;24.47;23.07;;;;;;;;;;4977588;28;20435;-84
2022/03/15 12:32:10;;;;;;;24.00;22.60;;;;;;;;;;4977232;28;20441;-84
2022/03/15 12:34:38;;;;;;;25.03;23.53;;;;;;;;;;4977389;28;21000;-84
2022/03/15 12:37:08;;;;;;;25.77;24.17;;;;;;;;;;4977313;28;20464;-83
2022/03/15 12:39:36;;;;;;;25.87;24.40;;;;;;;;;;4977172;28;20439;-84
2022/03/15 12:42:05;;;;;;;25.40;23.47;;;;;;;;;;4977488;28;20666;-84
2022/03/15 12:44:48;;;;;;;24.97;23.57;;;;;;;;;;4977338;28;20914;-84
2022/03/15 12:47:16;;;;;;;25.20;23.60;;;;;;;;;;4977199;28;20517;-84
2022/03/15 12:49:44;;;;;;;24.67;23.27;;;;;;;;;;4977017;28;20895;-84
2022/03/15 12:52:14;;;;;;;26.00;24.10;;;;;;;;;;4977203;28;20422;-84
2022/03/15 12:54:42;;;;;;;24.10;22.70;;;;;;;;;;4977264;28;20455;-85
2022/03/15 12:57:10;;;;;;;24.30;22.90;;;;;;;;;;4977590;28;20866;-84
2022/03/15 12:59:38;;;;;;;25.10;23.70;;;;;;;;;;4976803;28;20904;-90
2022/03/15 13:02:05;;;;;;;25.20;23.60;;;;;;;;;;4977795;28;20420;-87
2022/03/15 13:04:34;;;;;;;25.17;23.30;;;;;;;;;;4978031;28;20526;-86
2022/03/15 13:07:04;;;;;;;25.20;23.70;;;;;;;;;;4977112;28;20816;-86
2022/03/15 13:09:33;;;;;;;24.37;22.70;;;;;;;;;;4961767;28;20909;-85
2022/03/15 13:12:01;;;;;;;25.27;23.77;;;;;;;;;;4957734;29;20921;-85
2022/03/15 13:14:30;;;;;;;24.00;22.40;;;;;;;;;;4957831;29;20535;-85
2022/03/15 13:16:59;;;;;;;25.20;23.70;;;;;;;;;;4958645;28;20531;-86
2022/03/15 13:19:28;;;;;;;25.63;24.03;;;;;;;;;;4976683;28;20489;-86
2022/03/15 13:21:55;;;;;;;25.40;23.90;;;;;;;;;;4977921;28;20426;-84
2022/03/15 13:24:24;;;;;;;26.00;24.30;;;;;;;;;;4977014;28;20530;-86
2022/03/15 13:26:57;;;;;;;25.40;23.80;;;;;;;;;;4976856;28;20447;-86
2022/03/15 13:29:26;;;;;;;26.87;25.20;;;;;;;;;;4976748;28;20478;-85
2022/03/15 13:31:53;;;;;;;26.60;24.80;;;;;;;;;;4976590;28;20775;-85
2022/03/15 13:34:24;;;;;;;25.60;23.97;;;;;;;;;;4976790;28;20457;-85
2022/03/15 13:36:51;;;;;;;26.00;24.33;;;;;;;;;;4976547;28;20439;-84
2022/03/15 13:39:23;;;;;;;27.40;25.70;;;;;;;;;;4976100;28;20987;-86
2022/03/15 13:41:51;;;;;;;26.10;24.50;;;;;;;;;;4975932;28;20410;-84
2022/03/15 13:44:21;;;;;;;25.33;23.43;;;;;;;;;;4976363;28;20457;-83
2022/03/15 13:46:50;;;;;;;25.37;23.77;;;;;;;;;;4977000;28;20454;-89
2022/03/15 13:49:20;;;;;;;24.83;23.33;;;;;;;;;;4976012;28;20941;-84
2022/03/15 13:51:48;;;;;;;25.80;24.20;;;;;;;;;;4976216;28;20437;-83
2022/03/15 13:54:17;;;;;;;25.57;24.07;;;;;;;;;;4976743;28;20525;-88
2022/03/15 13:56:47;;;;;;;26.43;24.80;;;;;;;;;;4976856;28;20443;-84
2022/03/15 13:59:17;;;;;;;27.17;25.37;;;;;;;;;;4976052;28;20469;-85
2022/03/15 14:01:47;;;;;;;26.77;24.97;;;;;;;;;;4976971;28;20486;-82
2022/03/15 14:04:15;;;;;;;25.57;24.07;;;;;;;;;;4976164;28;20831;-83
2022/03/15 14:06:44;;;;;;;26.13;24.33;;;;;;;;;;4976350;28;20462;-86
2022/03/15 14:09:23;;;;;;;26.67;24.60;;;;;;;;;;4975262;28;20458;-82
2022/03/15 14:11:51;;;;;;;25.20;23.63;;;;;;;;;;4975120;28;20421;-84
2022/03/15 14:14:24;;;;;;;28.77;26.93;;;;;;;;;;4975357;28;20425;-84
2022/03/15 14:16:58;;;;;;;26.10;24.50;;;;;;;;;;4975297;28;20930;-83
2022/03/15 14:19:25;;;;;;;25.10;23.70;;;;;;;;;;4974883;28;20506;-83
2022/03/15 14:22:04;;;;;;;26.60;24.90;;;;;;;;;;4975752;28;20443;-84
2022/03/15 14:24:33;;;;;;;27.40;25.57;;;;;;;;;;4975191;28;20518;-85
2022/03/15 14:27:01;;;;;;;27.03;25.40;;;;;;;;;;4975916;28;20443;-86